createdAt,value
2023-10-22T00:00:48.055Z,99417.88
2023-10-22T00:03:51.188Z,99414.46
2023-10-22T00:06:27.841Z,99419.27
2023-10-22T00:09:01.201Z,99420.10
2023-10-22T00:11:59.506Z,99426.54
2023-10-22T00:14:36.677Z,99422.16
2023-10-22T00:17:10.957Z,99417.64
2023-10-22T00:20:00.057Z,99410.29
2023-10-22T00:22:43.084Z,99415.94
2023-10-22T00:25:21.784Z,99414.13
2023-10-22T00:28:06.248Z,99417.30
2023-10-22T00:30:49.453Z,99417.48
2023-10-22T00:33:20.823Z,99417.39
2023-10-22T00:36:05.138Z,99415.86
2023-10-22T00:38:48.855Z,99411.86
2023-10-22T00:41:26.815Z,99411.42
2023-10-22T00:44:08.438Z,99404.44
2023-10-22T00:47:03.385Z,99407.83
2023-10-22T00:49:39.755Z,99400.58
2023-10-22T00:52:14.786Z,99396.95
2023-10-22T00:54:53.069Z,99397.52
2023-10-22T00:57:34.534Z,99399.27
2023-10-22T01:00:20.904Z,99402.93
2023-10-22T01:02:55.632Z,99406.09
2023-10-22T01:05:42.355Z,99407.45
2023-10-22T01:08:40.562Z,99409.02
2023-10-22T01:11:35.673Z,99404.83
2023-10-22T01:14:15.925Z,99401.48
2023-10-22T01:17:13.793Z,99396.04
2023-10-22T01:19:57.348Z,99392.75
2023-10-22T01:22:37.131Z,99382.79
2023-10-22T01:25:21.817Z,99369.83
2023-10-22T01:27:59.911Z,99362.44
2023-10-22T01:30:40.044Z,99360.10
2023-10-22T01:33:15.671Z,99358.77
2023-10-22T01:35:47.005Z,99361.46
2023-10-22T01:38:20.234Z,99368.94
2023-10-22T01:40:58.745Z,99372.77
2023-10-22T01:43:32.510Z,99382.94
2023-10-22T01:46:11.733Z,99392.17
2023-10-22T01:49:01.278Z,99392.28
2023-10-22T01:51:37.819Z,99405.37
2023-10-22T01:54:22.958Z,99415.46
2023-10-22T01:56:59.922Z,99423.27
2023-10-22T01:59:42.205Z,99433.50
2023-10-22T02:02:19.289Z,99428.97
2023-10-22T02:04:53.018Z,99427.63
2023-10-22T02:07:43.068Z,99424.92
2023-10-22T02:10:16.731Z,99425.52
2023-10-22T02:12:53.550Z,99428.89
2023-10-22T02:15:28.552Z,99412.96
2023-10-22T02:17:59.772Z,99410.80
2023-10-22T02:20:41.839Z,99400.94
2023-10-22T02:23:26.458Z,99396.54
2023-10-22T02:26:14.624Z,99397.13
2023-10-22T02:28:48.078Z,99394.75
2023-10-22T02:31:21.920Z,99388.16
2023-10-22T02:34:08.872Z,99381.77
2023-10-22T02:36:39.560Z,99375.96
2023-10-22T02:39:15.228Z,99371.64
2023-10-22T02:44:44.247Z,99367.48
2023-10-22T02:47:18.596Z,99361.38
2023-10-22T02:50:04.303Z,99367.85
2023-10-22T02:52:44.173Z,99367.16
2023-10-22T02:56:14.693Z,99368.06
2023-10-22T02:58:30.362Z,99357.84
2023-10-22T03:01:11.551Z,99368.05
2023-10-22T03:03:54.783Z,99364.91
2023-10-22T03:06:32.288Z,99362.27
2023-10-22T03:09:14.403Z,99362.35
2023-10-22T03:12:04.083Z,99364.95
2023-10-22T03:14:51.927Z,99354.30
2023-10-22T03:17:36.463Z,99355.66
2023-10-22T03:20:23.242Z,99353.75
2023-10-22T03:22:57.983Z,99348.79
2023-10-22T03:25:36.097Z,99351.67
2023-10-22T03:28:11.958Z,99348.02
2023-10-22T03:30:52.772Z,99348.02
2023-10-22T03:33:38.068Z,99337.14
2023-10-22T03:36:20.750Z,99335.01
2023-10-22T03:39:15.173Z,99328.98
2023-10-22T03:41:59.498Z,99328.20
2023-10-22T03:44:43.899Z,99334.67
2023-10-22T03:47:24.874Z,99337.92
2023-10-22T03:50:09.574Z,99347.91
2023-10-22T03:52:48.306Z,99345.75
2023-10-22T03:55:22.581Z,99349.70
2023-10-22T03:58:10.240Z,99344.91
2023-10-22T04:00:54.714Z,99345.91
2023-10-22T04:03:31.177Z,99343.08
2023-10-22T04:06:04.976Z,99354.45
2023-10-22T04:08:45.730Z,99348.80
2023-10-22T04:11:25.613Z,99356.94
2023-10-22T04:14:00.365Z,99354.40
2023-10-22T04:16:37.970Z,99348.93
2023-10-22T04:19:13.696Z,99350.19
2023-10-22T04:21:55.778Z,99357.14
2023-10-22T04:24:28.419Z,99349.17
2023-10-22T04:27:13.301Z,99350.85
2023-10-22T04:29:57.406Z,99363.02
2023-10-22T04:32:55.816Z,99362.13
2023-10-22T04:35:31.627Z,99356.38
2023-10-22T04:38:07.802Z,99356.73
2023-10-22T04:40:52.512Z,99362.27
2023-10-22T04:43:26.372Z,99368.41
2023-10-22T04:46:13.521Z,99362.29
2023-10-22T04:48:45.942Z,99357.38
2023-10-22T04:51:30.131Z,99362.32
2023-10-22T04:54:10.149Z,99359.63
2023-10-22T04:56:44.225Z,99357.04
2023-10-22T04:59:39.502Z,99365.75
2023-10-22T05:02:14.606Z,99360.55
2023-10-22T05:04:53.466Z,99361.76
2023-10-22T05:07:35.043Z,99363.53
2023-10-22T05:10:20.906Z,99361.12
2023-10-22T05:13:00.497Z,99366.48
2023-10-22T05:15:37.363Z,99371.05
2023-10-22T05:18:12.191Z,99375.90
2023-10-22T05:20:50.357Z,99379.50
2023-10-22T05:23:29.081Z,99384.13
2023-10-22T05:26:26.431Z,99387.38
2023-10-22T05:29:16.466Z,99393.79
2023-10-22T05:32:06.438Z,99400.03
2023-10-22T05:35:05.245Z,99405.77
2023-10-22T05:37:58.950Z,99407.44
2023-10-22T05:40:40.343Z,99414.25
2023-10-22T05:43:35.744Z,99414.20
2023-10-22T05:46:43.847Z,99413.09
2023-10-22T05:49:32.900Z,99416.14
2023-10-22T05:52:23.023Z,99419.60
2023-10-22T05:55:21.595Z,99426.42
2023-10-22T05:58:05.150Z,99420.66
2023-10-22T06:01:00.793Z,99418.96
2023-10-22T06:04:02.470Z,99418.85
2023-10-22T06:06:54.433Z,99418.71
2023-10-22T06:09:46.686Z,99417.49
2023-10-22T06:13:06.708Z,99418.30
2023-10-22T06:19:09.258Z,99417.29
2023-10-22T06:22:07.754Z,99414.98
2023-10-22T06:27:59.452Z,99426.09
2023-10-22T06:30:44.138Z,99434.73
2023-10-22T06:42:05.488Z,99425.08
2023-10-22T06:45:21.838Z,99418.12
2023-10-22T06:53:04.596Z,99415.38
2023-10-22T06:55:36.439Z,99429.77
2023-10-22T06:58:10.161Z,99424.46
2023-10-22T07:09:25.230Z,99409.63
2023-10-22T07:12:28.371Z,99412.45
2023-10-22T07:15:04.705Z,99403.34
2023-10-22T07:17:41.587Z,99406.85
2023-10-22T07:26:18.967Z,99411.20
2023-10-22T07:29:33.546Z,99414.48
2023-10-22T07:32:23.398Z,99414.73
2023-10-22T07:35:19.816Z,99424.00
2023-10-22T07:37:56.410Z,99412.79
2023-10-22T07:40:44.546Z,99410.13
2023-10-22T07:43:16.668Z,99410.56
2023-10-22T07:45:59.134Z,99404.52
2023-10-22T07:48:31.851Z,99400.55
2023-10-22T07:51:25.088Z,99403.64
2023-10-22T07:54:16.884Z,99402.06
2023-10-22T07:57:15.125Z,99396.73
2023-10-22T08:00:14.923Z,99398.85
2023-10-22T08:03:19.112Z,99399.80
2023-10-22T08:06:06.347Z,99392.91
2023-10-22T08:09:08.034Z,99395.53
2023-10-22T08:12:07.869Z,99400.48
2023-10-22T08:15:08.741Z,99398.80
2023-10-22T08:17:54.929Z,99394.89
2023-10-22T08:21:30.086Z,99399.05
2023-10-22T08:24:08.328Z,99407.01
2023-10-22T08:26:46.694Z,99407.95
2023-10-22T08:29:22.864Z,99407.44
2023-10-22T08:31:53.745Z,99404.41
2023-10-22T08:35:21.690Z,99411.95
2023-10-22T08:38:41.445Z,99409.58
2023-10-22T08:48:26.958Z,99406.43
2023-10-22T08:54:24.354Z,99399.44
2023-10-22T08:57:11.519Z,99397.52
2023-10-22T08:59:50.796Z,99392.27
2023-10-22T09:02:27.360Z,99392.25
2023-10-22T09:05:49.744Z,99394.86
2023-10-22T09:09:06.853Z,99388.83
2023-10-22T09:24:09.796Z,99405.14
2023-10-22T09:28:03.320Z,99409.52
2023-10-22T09:31:29.399Z,99411.23
2023-10-22T09:34:43.488Z,99415.88
2023-10-22T09:38:20.502Z,99413.45
2023-10-22T10:00:56.816Z,99416.93
2023-10-22T10:03:48.823Z,99413.17
2023-10-22T10:07:30.041Z,99422.79
2023-10-22T10:09:44.196Z,99423.11
2023-10-22T10:12:35.412Z,99423.59
2023-10-22T10:15:41.992Z,99426.93
2023-10-22T10:19:27.464Z,99431.40
2023-10-22T10:23:30.209Z,99429.86
2023-10-22T10:26:55.062Z,99432.86
2023-10-22T10:30:22.329Z,99435.27
2023-10-22T10:37:23.428Z,99443.11
2023-10-22T10:41:14.613Z,99437.42
2023-10-22T10:45:22.979Z,99439.05
2023-10-22T10:49:02.329Z,99436.05
2023-10-22T10:55:59.723Z,99433.45
2023-10-22T10:59:25.265Z,99433.86
2023-10-22T11:06:40.463Z,99437.38
2023-10-22T11:09:56.543Z,99434.19
2023-10-22T11:13:03.646Z,99430.64
2023-10-22T11:15:44.823Z,99432.73
2023-10-22T11:18:34.194Z,99431.16
2023-10-22T11:21:46.769Z,99429.56
2023-10-22T11:24:53.280Z,99425.66
2023-10-22T11:27:37.744Z,99424.48
2023-10-22T11:30:13.110Z,99430.17
2023-10-22T11:32:49.319Z,99432.50
2023-10-22T11:35:44.447Z,99429.27
2023-10-22T11:38:31.823Z,99433.16
2023-10-22T11:41:13.294Z,99429.48
2023-10-22T11:43:56.974Z,99426.45
2023-10-22T11:46:47.615Z,99426.20
2023-10-22T11:49:32.323Z,99424.45
2023-10-22T11:52:16.755Z,99431.56
2023-10-22T11:55:04.380Z,99430.19
2023-10-22T11:58:52.369Z,99431.44
2023-10-22T12:02:16.126Z,99430.77
2023-10-22T12:05:35.980Z,99432.61
2023-10-22T12:08:47.988Z,99442.67
2023-10-22T12:14:43.857Z,99443.95
2023-10-22T12:20:52.067Z,99451.77
2023-10-22T12:24:26.142Z,99454.31
2023-10-22T12:27:43.338Z,99458.90
2023-10-22T12:31:20.646Z,99460.91
2023-10-22T12:34:09.341Z,99468.64
2023-10-22T12:37:06.515Z,99479.50
2023-10-22T12:39:49.151Z,99486.11
2023-10-22T12:42:23.326Z,99499.12
2023-10-22T12:44:55.502Z,99497.42
2023-10-22T12:47:33.852Z,99504.45
2023-10-22T12:50:41.228Z,99505.91
2023-10-22T12:53:19.813Z,99504.59
2023-10-22T12:56:10.054Z,99512.36
2023-10-22T12:58:49.071Z,99515.38
2023-10-22T13:01:32.874Z,99517.27
2023-10-22T13:04:08.531Z,99522.36
2023-10-22T13:06:49.144Z,99526.77
2023-10-22T13:09:32.653Z,99540.63
2023-10-22T13:12:22.395Z,99538.10
2023-10-22T13:15:05.690Z,99542.45
2023-10-22T13:17:43.526Z,99553.66
2023-10-22T13:20:16.961Z,99555.10
2023-10-22T13:23:26.951Z,99557.31
2023-10-22T13:28:57.811Z,99573.45
2023-10-22T13:31:43.603Z,99576.54
2023-10-22T13:34:52.586Z,99573.65
2023-10-22T13:37:29.010Z,99588.81
2023-10-22T13:40:08.182Z,99591.42
2023-10-22T13:42:44.851Z,99604.67
2023-10-22T13:45:33.763Z,99602.05
2023-10-22T13:48:16.412Z,99608.07
2023-10-22T13:51:07.494Z,99603.86
2023-10-22T13:53:46.222Z,99611.36
2023-10-22T13:56:37.538Z,99615.35
2023-10-22T13:59:17.570Z,99619.62
2023-10-22T14:01:56.954Z,99623.29
2023-10-22T14:04:42.573Z,99623.41
2023-10-22T14:07:50.711Z,99631.83
2023-10-22T14:10:42.457Z,99627.91
2023-10-22T14:13:23.017Z,99635.48
2023-10-22T14:16:22.583Z,99634.04
2023-10-22T14:18:54.876Z,99638.81
2023-10-22T14:21:30.590Z,99643.40
2023-10-22T14:24:17.165Z,99640.48
2023-10-22T14:27:10.177Z,99644.58
2023-10-22T14:29:49.531Z,99635.77
2023-10-22T14:32:22.591Z,99642.80
2023-10-22T14:35:06.611Z,99650.88
2023-10-22T14:38:09.796Z,99652.11
2023-10-22T14:41:28.115Z,99652.52
2023-10-22T14:44:35.021Z,99661.02
2023-10-22T14:47:41.482Z,99659.38
2023-10-22T14:57:54.754Z,99677.54
2023-10-22T15:04:19.951Z,99688.15
2023-10-22T15:11:36.760Z,99692.41
2023-10-22T15:14:59.454Z,99696.77
2023-10-22T15:18:23.288Z,99698.14
2023-10-22T15:21:03.751Z,99703.66
2023-10-22T15:23:51.169Z,99711.76
2023-10-22T15:27:09.900Z,99713.55
2023-10-22T15:30:19.003Z,99715.81
2023-10-22T15:33:18.936Z,99722.69
2023-10-22T15:36:00.934Z,99728.64
2023-10-22T15:39:04.636Z,99736.41
2023-10-22T15:42:04.815Z,99737.64
2023-10-22T15:44:46.366Z,99734.66
2023-10-22T15:47:35.448Z,99743.34
2023-10-22T15:50:20.824Z,99746.71
2023-10-22T15:53:43.151Z,99754.30
2023-10-22T15:56:32.315Z,99748.75
2023-10-22T15:59:44.386Z,99763.67
2023-10-22T16:03:16.022Z,99762.68
2023-10-22T16:06:48.202Z,99771.00
2023-10-22T16:09:38.528Z,99772.78
2023-10-22T16:13:01.967Z,99776.92
2023-10-22T16:16:16.285Z,99778.02
2023-10-22T16:20:03.942Z,99787.34
2023-10-22T16:22:59.163Z,99796.08
2023-10-22T16:29:23.552Z,99804.40
2023-10-22T16:32:17.343Z,99813.14
2023-10-22T16:35:26.313Z,99823.64
2023-10-22T16:38:39.588Z,99823.88
2023-10-22T16:41:27.390Z,99838.61
2023-10-22T16:44:10.290Z,99837.27
2023-10-22T16:46:57.883Z,99847.29
2023-10-22T16:50:08.555Z,99842.92
2023-10-22T16:53:12.327Z,99856.19
2023-10-22T16:59:38.455Z,99863.13
2023-10-22T17:15:07.796Z,99875.31
2023-10-22T17:21:33.280Z,99890.42
2023-10-22T17:24:46.178Z,99898.67
2023-10-22T17:27:59.131Z,99900.20
2023-10-22T17:31:23.753Z,99900.25
2023-10-22T17:41:17.337Z,99926.22
2023-10-22T17:44:12.042Z,99926.58
2023-10-22T17:47:01.305Z,99932.94
2023-10-22T17:49:52.260Z,99934.55
2023-10-22T17:53:26.476Z,99938.96
2023-10-22T17:56:44.081Z,99943.80
2023-10-22T17:59:56.977Z,99945.07
2023-10-22T18:03:51.467Z,99952.31
2023-10-22T18:07:07.236Z,99950.59
2023-10-22T18:10:17.574Z,99956.64
2023-10-22T18:14:07.869Z,99961.52
2023-10-22T19:28:21.245Z,100051.06
2023-10-22T19:30:57.092Z,100049.92
2023-10-22T19:38:33.992Z,100057.95
2023-10-22T19:46:18.867Z,100061.50
2023-10-22T20:03:51.532Z,100071.12
2023-10-22T20:06:33.763Z,100074.02
2023-10-22T20:09:18.828Z,100075.22
2023-10-22T20:15:41.179Z,100076.61
2023-10-22T20:18:38.954Z,100072.50
2023-10-22T20:24:37.574Z,100085.77
2023-10-22T20:31:17.308Z,100087.27
2023-10-22T20:34:19.127Z,100094.94
2023-10-22T20:37:27.310Z,100093.29
2023-10-22T21:12:18.205Z,100109.81
2023-10-22T21:15:48.659Z,100111.34
2023-10-22T21:19:13.569Z,100116.80
2023-10-22T21:22:27.956Z,100111.60
2023-10-22T21:25:48.554Z,100116.30
2023-10-22T21:28:42.107Z,100120.11
2023-10-22T21:31:58.674Z,100127.02
2023-10-22T21:34:54.468Z,100125.34
2023-10-22T21:38:14.857Z,100126.33
2023-10-22T21:41:31.951Z,100123.08
2023-10-22T21:44:55.468Z,100124.06
2023-10-22T21:48:10.863Z,100125.45
2023-10-22T21:52:23.765Z,100129.81
2023-10-22T21:55:17.768Z,100131.41
2023-10-22T22:03:23.796Z,100126.95
2023-10-22T22:07:13.502Z,100131.46
2023-10-22T22:33:20.955Z,100155.29
2023-10-22T22:51:05.887Z,100168.68
2023-10-22T22:54:04.501Z,100170.45
2023-10-22T22:57:39.335Z,100165.02
2023-10-22T23:04:02.425Z,100171.85
2023-10-22T23:07:40.716Z,100170.99
2023-10-22T23:10:43.860Z,100179.00
2023-10-22T23:13:48.959Z,100184.95
2023-10-22T23:16:53.845Z,100192.30
2023-10-22T23:19:57.810Z,100197.77
2023-10-22T23:23:00.567Z,100198.77
2023-10-22T23:26:27.378Z,100203.40
